Time,TemperatureF,DewpointF,PressureIn,WindDirection,WindDirectionDegrees,WindSpeedMPH,WindSpeedGustMPH,Humidity,HourlyPrecipIn,Conditions,Clouds,dailyrainin,SolarRadiationWatts/m^2,SoftwareType,DateUTC
2013-02-01 00:01:00,42.7,29.8,30.19,West,281,3.5,3.5,60,0.00,RA,SKC,0.00,0.0,WeatherDisplay:10.37,2013-02-01 05:01:00,
2013-02-01 00:03:00,42.6,29.3,30.19,West,273,3.0,3.0,59,0.00,RA,SKC,0.00,0.0,WeatherDisplay:10.37,2013-02-01 05:03:00,
2013-02-01 00:08:00,42.6,29.3,30.18,NW,315,3.5,3.5,59,0.00,RA,SKC,0.00,0.0,WeatherDisplay:10.37,2013-02-01 05:08:00,
2013-02-01 00:13:00,42.7,29.4,30.18,WNW,288,3.0,3.0,59,0.00,SCT,SKC,0.00,0.0,WeatherDisplay:10.37,2013-02-01 05:13:00,
2013-02-01 00:18:00,42.6,29.3,30.18,WNW,288,2.3,0.0,59,0.00,SCT,SKC,0.00,0.0,WeatherDisplay:10.37,2013-02-01 05:18:00,
2013-02-01 00:23:00,42.4,29.5,30.18,WNW,288,2.0,2.0,60,0.00,SCT,SKC,0.00,0.0,WeatherDisplay:10.37,2013-02-01 05:23:00,
2013-02-01 00:28:00,42.4,29.5,30.18,West,269,3.5,3.5,60,0.00,SCT,SKC,0.00,0.0,WeatherDisplay:10.37,2013-02-01 05:28:00,
2013-02-01 00:33:00,42.4,29.5,30.18,West,269,1.2,1.2,60,0.00,SCT,SKC,0.00,0.0,WeatherDisplay:10.37,2013-02-01 05:33:00,
2013-02-01 00:38:00,42.5,29.6,30.17,West,279,3.5,3.5,60,0.00,SCT,SKC,0.00,0.0,WeatherDisplay:10.37,2013-02-01 05:38:00,
2013-02-01 00:43:00,42.6,29.3,30.17,West,275,3.5,3.5,59,0.00,SCT,SKC,0.00,0.0,WeatherDisplay:10.37,2013-02-01 05:43:00,
2013-02-01 00:48:00,42.6,29.3,30.17,West,279,2.0,2.0,59,0.00,SCT,SKC,0.00,0.0,WeatherDisplay:10.37,2013-02-01 05:48:00,
2013-02-01 00:53:00,42.7,29.4,30.17,West,280,0.0,0.0,59,0.00,SCT,SKC,0.00,0.0,WeatherDisplay:10.37,2013-02-01 05:53:00,
2013-02-01 00:58:00,42.6,29.3,30.17,WNW,292,4.0,4.0,59,0.00,SCT,SKC,0.00,0.0,WeatherDisplay:10.37,2013-02-01 05:58:00,
2013-02-01 01:03:00,42.7,29.4,30.17,WNW,284,3.5,3.5,59,0.00,SCT,SKC,0.00,0.0,WeatherDisplay:10.37,2013-02-01 06:03:00,
2013-02-01 01:08:00,42.8,29.0,30.17,West,275,4.6,4.6,58,0.00,SCT,SKC,0.00,0.0,WeatherDisplay:10.37,2013-02-01 06:08:00,
2013-02-01 01:13:00,42.8,29.5,30.17,West,275,0.0,0.0,59,0.00,SCT,SKC,0.00,0.0,WeatherDisplay:10.37,2013-02-01 06:13:00,
2013-02-01 01:18:00,42.6,29.3,30.17,West,272,2.3,2.3,59,0.00,SCT,SKC,0.00,0.0,WeatherDisplay:10.37,2013-02-01 06:18:00,
2013-02-01 01:23:00,42.5,29.2,30.18,West,278,3.5,3.5,59,0.00,SCT,SKC,0.00,0.0,WeatherDisplay:10.37,2013-02-01 06:23:00,
2013-02-01 01:28:00,42.3,29.4,30.18,West,276,3.5,3.5,60,0.00,SCT,SKC,0.00,0.0,WeatherDisplay:10.37,2013-02-01 06:28:00,
2013-02-01 01:33:00,42.3,29.4,30.18,WNW,290,3.5,3.5,60,0.00,SCT,SKC,0.00,0.0,WeatherDisplay:10.37,2013-02-01 06:33:00,
2013-02-01 01:38:00,42.4,29.5,30.18,West,281,1.2,1.2,60,0.00,SCT,SKC,0.00,0.0,WeatherDisplay:10.37,2013-02-01 06:38:00,
2013-02-01 01:43:00,42.4,29.5,30.19,West,279,3.5,3.5,60,0.00,SCT,SKC,0.00,0.0,WeatherDisplay:10.37,2013-02-01 06:43:00,
2013-02-01 01:48:00,42.4,29.5,30.18,WNW,285,2.0,2.0,60,0.00,SCT,SKC,0.00,0.0,WeatherDisplay:10.37,2013-02-01 06:48:00,
2013-02-01 01:53:00,42.5,29.6,30.19,West,276,3.5,3.5,60,0.00,SCT,SKC,0.00,0.0,WeatherDisplay:10.37,2013-02-01 06:53:00,
2013-02-01 01:58:00,42.6,29.3,30.18,WNW,292,3.5,3.5,59,0.00,SCT,SKC,0.00,0.0,WeatherDisplay:10.37,2013-02-01 06:58:00,
2013-02-01 02:03:00,42.7,29.4,30.19,WNW,285,3.5,3.5,59,0.00,SCT,SKC,0.00,0.0,WeatherDisplay:10.37,2013-02-01 07:03:00,
2013-02-01 02:08:00,42.8,29.0,30.18,WNW,286,1.2,1.2,58,0.00,SCT,SKC,0.00,0.0,WeatherDisplay:10.37,2013-02-01 07:08:00,
2013-02-01 02:13:00,42.9,29.1,30.18,NNW,335,1.2,1.2,58,0.00,SCT,SKC,0.00,0.0,WeatherDisplay:10.37,2013-02-01 07:13:00,
2013-02-01 02:18:00,43.1,29.3,30.18,West,261,1.2,1.2,58,0.00,SCT,SKC,0.00,0.0,WeatherDisplay:10.37,2013-02-01 07:18:00,
2013-02-01 02:23:00,43.2,29.0,30.18,West,279,3.5,3.5,57,0.00,SCT,SKC,0.00,0.0,WeatherDisplay:10.37,2013-02-01 07:23:00,
2013-02-01 02:29:00,43.4,29.2,30.18,West,281,4.6,4.6,57,0.00,SCT,SKC,0.00,0.0,WeatherDisplay:10.37,2013-02-01 07:29:00,
2013-02-01 02:34:00,43.4,29.2,30.18,West,272,4.6,4.6,57,0.00,SCT,SKC,0.00,0.0,WeatherDisplay:10.37,2013-02-01 07:34:00,
2013-02-01 02:39:00,43.4,29.2,30.18,West,275,1.2,1.2,57,0.00,SCT,SKC,0.00,0.0,WeatherDisplay:10.37,2013-02-01 07:39:00,
2013-02-01 02:44:00,43.3,29.1,30.18,West,275,3.5,3.5,57,0.00,SCT,SKC,0.00,0.0,WeatherDisplay:10.37,2013-02-01 07:44:00,
2013-02-01 02:49:00,43.2,29.4,30.17,West,277,3.5,3.5,58,0.00,SCT,SKC,0.00,0.0,WeatherDisplay:10.37,2013-02-01 07:49:00,
2013-02-01 02:54:00,43.1,29.7,30.17,WNW,290,3.0,3.0,59,0.00,SCT,SKC,0.00,0.0,WeatherDisplay:10.37,2013-02-01 07:54:00,
2013-02-01 02:59:00,43.0,29.6,30.18,West,261,0.0,0.0,59,0.00,SCT,SKC,0.00,0.0,WeatherDisplay:10.37,2013-02-01 07:59:00,
2013-02-01 03:04:00,42.8,30.3,30.18,SW,232,1.2,1.2,61,0.00,BKN,SKC,0.00,0.0,WeatherDisplay:10.37,2013-02-01 08:04:00,
2013-02-01 03:09:00,42.6,30.1,30.17,SW,231,2.3,2.3,61,0.00,BKN,SKC,0.00,0.0,WeatherDisplay:10.37,2013-02-01 08:09:00,
2013-02-01 03:14:00,42.3,30.2,30.17,SW,231,0.0,0.0,62,0.00,BKN,SKC,0.00,0.0,WeatherDisplay:10.37,2013-02-01 08:14:00,
2013-02-01 03:19:00,41.9,29.8,30.17,West,268,2.3,2.3,62,0.00,BKN,SKC,0.00,0.0,WeatherDisplay:10.37,2013-02-01 08:19:00,
2013-02-01 03:24:00,41.8,30.1,30.17,West,268,2.3,2.3,63,0.00,BKN,SKC,0.00,0.0,WeatherDisplay:10.37,2013-02-01 08:24:00,
2013-02-01 03:29:00,41.8,30.1,30.17,West,269,1.2,1.2,63,0.00,BKN,SKC,0.00,0.0,WeatherDisplay:10.37,2013-02-01 08:29:00,
2013-02-01 03:34:00,41.7,30.0,30.17,West,269,2.3,0.0,63,0.00,BKN,SKC,0.00,0.0,WeatherDisplay:10.37,2013-02-01 08:34:00,
2013-02-01 03:39:00,41.7,30.4,30.17,West,270,0.0,0.0,64,0.01,RA,SKC,0.01,0.0,WeatherDisplay:10.37,2013-02-01 08:39:00,
2013-02-01 03:44:00,41.5,30.2,30.18,West,270,0.0,0.0,64,0.01,RA,SKC,0.01,0.0,WeatherDisplay:10.37,2013-02-01 08:44:00,
2013-02-01 03:49:00,41.4,30.1,30.17,West,273,3.5,3.5,64,0.01,BKN,SKC,0.01,0.0,WeatherDisplay:10.37,2013-02-01 08:49:00,
2013-02-01 03:54:00,41.5,29.8,30.17,West,273,1.2,1.2,63,0.01,BKN,SKC,0.01,0.0,WeatherDisplay:10.37,2013-02-01 08:54:00,
2013-02-01 03:59:00,41.6,29.9,30.17,West,273,2.3,2.3,63,0.01,BKN,SKC,0.01,0.0,WeatherDisplay:10.37,2013-02-01 08:59:00,
2013-02-01 04:04:00,41.6,30.7,30.17,West,273,0.0,0.0,65,0.01,SCT,SKC,0.01,0.0,WeatherDisplay:10.37,2013-02-01 09:04:00,
2013-02-01 04:09:00,41.7,30.0,30.17,West,273,1.2,1.2,63,0.01,SCT,SKC,0.01,0.0,WeatherDisplay:10.37,2013-02-01 09:09:00,
2013-02-01 04:14:00,41.6,30.3,30.17,West,273,1.2,0.0,64,0.01,SCT,SKC,0.01,0.0,WeatherDisplay:10.37,2013-02-01 09:14:00,
2013-02-01 04:19:00,41.6,30.7,30.17,West,273,0.0,0.0,65,0.01,SCT,SKC,0.01,0.0,WeatherDisplay:10.37,2013-02-01 09:19:00,
2013-02-01 04:24:00,41.5,30.6,30.17,WNW,299,3.5,3.5,65,0.01,SCT,SKC,0.01,0.0,WeatherDisplay:10.37,2013-02-01 09:24:00,
2013-02-01 04:29:00,41.4,30.5,30.17,WNW,299,2.3,2.3,65,0.01,SCT,SKC,0.01,0.0,WeatherDisplay:10.37,2013-02-01 09:29:00,
2013-02-01 04:34:00,41.4,30.5,30.17,WNW,299,1.2,1.2,65,0.01,SCT,SKC,0.01,0.0,WeatherDisplay:10.37,2013-02-01 09:34:00,
2013-02-01 04:39:00,41.5,30.6,30.17,West,275,0.0,0.0,65,0.00,SCT,SKC,0.01,0.0,WeatherDisplay:10.37,2013-02-01 09:39:00,
2013-02-01 04:44:00,41.3,30.4,30.17,West,268,2.3,2.3,65,0.00,SCT,SKC,0.01,0.0,WeatherDisplay:10.37,2013-02-01 09:44:00,
2013-02-01 04:49:00,41.3,30.4,30.17,West,268,0.0,0.0,65,0.00,SCT,SKC,0.01,0.0,WeatherDisplay:10.37,2013-02-01 09:49:00,
2013-02-01 04:54:00,41.0,30.5,30.17,West,268,0.0,0.0,66,0.00,SCT,SKC,0.01,0.0,WeatherDisplay:10.37,2013-02-01 09:54:00,
2013-02-01 04:59:00,40.8,30.7,30.17,West,268,0.0,0.0,67,0.00,SCT,SKC,0.01,0.0,WeatherDisplay:10.37,2013-02-01 09:59:00,
2013-02-01 05:04:00,40.8,30.3,30.17,West,269,0.0,0.0,66,0.00,SCT,SKC,0.01,0.0,WeatherDisplay:10.37,2013-02-01 10:04:00,
2013-02-01 05:09:00,40.7,30.6,30.17,West,268,0.0,0.0,67,0.00,SCT,SKC,0.01,0.0,WeatherDisplay:10.37,2013-02-01 10:09:00,
2013-02-01 05:14:00,40.6,30.5,30.17,West,281,2.3,2.3,67,0.00,SCT,SKC,0.01,0.0,WeatherDisplay:10.37,2013-02-01 10:14:00,
2013-02-01 05:19:00,40.4,30.3,30.17,West,281,1.2,0.0,67,0.00,SCT,SKC,0.01,0.0,WeatherDisplay:10.37,2013-02-01 10:19:00,
2013-02-01 05:24:00,40.2,30.5,30.17,West,281,1.2,0.0,68,0.00,SCT,SKC,0.01,0.0,WeatherDisplay:10.37,2013-02-01 10:24:00,
2013-02-01 05:29:00,40.0,30.6,30.17,West,281,0.0,0.0,69,0.00,SCT,SKC,0.01,0.0,WeatherDisplay:10.37,2013-02-01 10:29:00,
2013-02-01 05:34:00,39.8,30.8,30.17,West,281,0.0,0.0,70,0.00,SCT,SKC,0.01,0.0,WeatherDisplay:10.37,2013-02-01 10:34:00,
2013-02-01 05:39:00,39.5,30.9,30.17,West,281,0.0,0.0,71,0.00,SCT,SKC,0.01,0.0,WeatherDisplay:10.37,2013-02-01 10:39:00,
2013-02-01 05:44:00,39.4,30.8,30.17,West,281,0.0,0.0,71,0.00,SCT,SKC,0.01,0.0,WeatherDisplay:10.37,2013-02-01 10:44:00,
2013-02-01 05:49:00,39.2,30.6,30.17,West,281,0.0,0.0,71,0.00,SCT,SKC,0.01,0.0,WeatherDisplay:10.37,2013-02-01 10:49:00,
2013-02-01 05:54:00,39.2,30.6,30.17,West,281,0.0,0.0,71,0.00,SCT,SKC,0.01,0.0,WeatherDisplay:10.37,2013-02-01 10:54:00,
2013-02-01 05:59:00,39.2,30.9,30.17,West,281,0.0,0.0,72,0.00,SCT,SKC,0.01,0.0,WeatherDisplay:10.37,2013-02-01 10:59:00,
2013-02-01 06:04:00,39.2,30.9,30.17,West,281,0.0,0.0,72,0.00,SCT,SKC,0.01,0.0,WeatherDisplay:10.37,2013-02-01 11:04:00,
2013-02-01 06:09:00,39.1,30.8,30.17,West,281,0.0,0.0,72,0.00,SCT,SKC,0.01,0.0,WeatherDisplay:10.37,2013-02-01 11:09:00,
2013-02-01 06:14:00,39.1,31.2,30.17,West,281,0.0,0.0,73,0.00,SCT,SKC,0.01,0.0,WeatherDisplay:10.37,2013-02-01 11:14:00,
2013-02-01 06:19:00,39.1,30.8,30.17,West,269,0.0,0.0,72,0.00,SCT,SKC,0.01,0.0,WeatherDisplay:10.37,2013-02-01 11:19:00,
2013-02-01 06:24:00,39.2,30.9,30.17,West,269,0.0,0.0,72,0.00,SCT,SKC,0.01,0.0,WeatherDisplay:10.37,2013-02-01 11:24:00,
2013-02-01 06:29:00,39.5,30.9,30.17,West,269,0.0,0.0,71,0.00,SCT,SKC,0.01,0.0,WeatherDisplay:10.37,2013-02-01 11:29:00,
2013-02-01 06:34:00,39.5,30.9,30.17,West,269,0.0,0.0,71,0.00,SCT,SKC,0.01,0.0,WeatherDisplay:10.37,2013-02-01 11:34:00,
2013-02-01 06:39:00,39.7,30.7,30.17,West,276,0.0,0.0,70,0.00,SCT,SKC,0.01,0.0,WeatherDisplay:10.37,2013-02-01 11:39:00,
2013-02-01 06:44:00,40.0,31.4,30.17,WSW,254,1.2,1.2,71,0.00,SCT,SKC,0.01,0.0,WeatherDisplay:10.37,2013-02-01 11:44:00,
2013-02-01 06:49:00,40.1,31.1,30.17,WNW,283,2.0,2.0,70,0.00,SCT,SKC,0.01,0.0,WeatherDisplay:10.37,2013-02-01 11:49:00,
2013-02-01 06:54:00,40.2,31.5,30.17,WNW,284,0.0,0.0,71,0.00,SCT,SKC,0.01,0.0,WeatherDisplay:10.37,2013-02-01 11:54:00,
2013-02-01 06:59:00,40.2,31.5,30.17,WNW,284,0.0,0.0,71,0.00,SCT,SKC,0.01,0.0,WeatherDisplay:10.37,2013-02-01 11:59:00,
2013-02-01 07:04:00,40.6,31.2,30.17,NNE,15,0.0,0.0,69,0.00,FEW,SKC,0.01,0.0,WeatherDisplay:10.37,2013-02-01 12:04:00,
2013-02-01 07:09:00,40.7,31.3,30.17,NNE,15,0.0,0.0,69,0.00,FEW,SKC,0.01,0.0,WeatherDisplay:10.37,2013-02-01 12:09:00,
2013-02-01 07:14:00,40.8,31.4,30.17,NNW,342,0.0,1.3,69,0.00,FEW,SKC,0.01,0.0,WeatherDisplay:10.37,2013-02-01 12:14:00,
2013-02-01 07:19:00,41.2,31.4,30.17,NNW,327,1.2,1.2,68,0.00,FEW,SKC,0.01,5.0,WeatherDisplay:10.37,2013-02-01 12:19:00,
2013-02-01 07:24:00,41.4,31.3,30.17,NW,326,2.3,2.3,67,0.00,FEW,SKC,0.01,11.0,WeatherDisplay:10.37,2013-02-01 12:24:00,
2013-02-01 07:29:00,41.6,31.4,30.17,NW,325,2.0,2.0,67,0.00,FEW,SKC,0.01,14.0,WeatherDisplay:10.37,2013-02-01 12:29:00,
2013-02-01 07:34:00,42.0,31.5,30.17,WNW,303,1.2,0.0,66,0.00,FEW,SKC,0.01,12.0,WeatherDisplay:10.37,2013-02-01 12:34:00,
2013-02-01 07:39:00,42.1,31.9,30.17,SSW,213,1.2,0.0,67,0.00,FEW,SKC,0.01,11.0,WeatherDisplay:10.37,2013-02-01 12:39:00,
2013-02-01 07:44:00,42.0,31.8,30.17,SSW,212,0.0,0.0,67,0.00,FEW,SKC,0.01,12.0,WeatherDisplay:10.37,2013-02-01 12:44:00,
2013-02-01 07:49:00,42.1,32.3,30.17,West,277,0.0,0.0,68,0.00,FEW,SKC,0.01,14.0,WeatherDisplay:10.37,2013-02-01 12:49:00,
2013-02-01 07:54:00,42.2,32.0,30.17,West,277,0.0,0.0,67,0.00,FEW,SKC,0.01,18.0,WeatherDisplay:10.37,2013-02-01 12:54:00,
2013-02-01 07:59:00,42.5,31.9,30.17,West,277,1.2,1.7,66,0.00,FEW,SKC,0.01,21.0,WeatherDisplay:10.37,2013-02-01 12:59:00,
2013-02-01 08:04:00,42.9,32.3,30.18,North,355,1.0,1.0,66,0.00,SCT,SKC,0.01,19.0,WeatherDisplay:10.37,2013-02-01 13:04:00,
2013-02-01 08:09:00,43.4,32.4,30.17,WNW,288,0.0,0.0,65,0.00,SCT,SKC,0.01,25.0,WeatherDisplay:10.37,2013-02-01 13:09:00,
2013-02-01 08:15:00,43.7,32.7,30.18,WNW,292,2.3,2.3,65,0.00,SCT,SKC,0.01,25.0,WeatherDisplay:10.37,2013-02-01 13:15:00,
2013-02-01 08:20:00,44.3,32.9,30.18,WNW,292,2.3,2.3,64,0.00,SCT,SKC,0.01,26.0,WeatherDisplay:10.37,2013-02-01 13:20:00,
2013-02-01 08:25:00,45.1,33.2,30.19,WSW,237,0.0,3.0,63,0.00,SCT,SKC,0.01,30.0,WeatherDisplay:10.37,2013-02-01 13:25:00,
2013-02-01 08:30:00,45.5,33.2,30.19,SE,144,1.2,1.2,62,0.00,SCT,SKC,0.01,30.0,WeatherDisplay:10.37,2013-02-01 13:30:00,
2013-02-01 08:35:00,46.1,33.8,30.19,SE,144,0.0,1.0,62,0.00,SCT,SKC,0.01,35.0,WeatherDisplay:10.37,2013-02-01 13:35:00,
2013-02-01 08:39:00,47.2,33.6,30.19,West,263,3.5,3.5,59,0.00,SCT,SKC,0.01,46.0,WeatherDisplay:10.37,2013-02-01 13:39:00,
2013-02-01 08:45:00,48.6,33.6,30.19,West,265,6.9,6.9,56,0.00,SCT,SKC,0.01,40.0,WeatherDisplay:10.37,2013-02-01 13:45:00,
2013-02-01 08:50:00,49.7,33.2,30.19,WSW,238,3.5,3.5,53,0.00,SCT,SKC,0.01,44.0,WeatherDisplay:10.37,2013-02-01 13:50:00,
2013-02-01 08:55:00,50.5,33.0,30.19,West,265,2.0,6.0,51,0.00,SCT,SKC,0.01,30.0,WeatherDisplay:10.37,2013-02-01 13:55:00,
2013-02-01 09:00:00,50.8,32.8,30.19,WNW,284,5.0,5.0,50,0.00,SCT,SKC,0.01,32.0,WeatherDisplay:10.37,2013-02-01 14:00:00,
2013-02-01 09:05:00,51.0,32.5,30.20,West,262,5.0,16.0,49,0.00,SCT,SKC,0.01,33.0,WeatherDisplay:10.37,2013-02-01 14:05:00,
2013-02-01 09:10:00,51.3,32.3,30.20,SW,235,8.1,8.1,48,0.00,SCT,SKC,0.01,35.0,WeatherDisplay:10.37,2013-02-01 14:10:00,
2013-02-01 09:15:00,51.5,31.9,30.20,West,264,9.0,22.0,47,0.00,SCT,SKC,0.01,56.0,WeatherDisplay:10.37,2013-02-01 14:15:00,
2013-02-01 09:20:00,51.5,31.9,30.20,West,268,7.0,20.0,47,0.00,SCT,SKC,0.01,121.0,WeatherDisplay:10.37,2013-02-01 14:20:00,
2013-02-01 09:25:00,51.7,32.1,30.20,WSW,257,15.0,15.0,47,0.00,SCT,SKC,0.01,49.0,WeatherDisplay:10.37,2013-02-01 14:25:00,
2013-02-01 09:30:00,51.9,32.8,30.20,West,259,8.0,15.0,48,0.00,SCT,SKC,0.01,37.0,WeatherDisplay:10.37,2013-02-01 14:30:00,
2013-02-01 09:35:00,52.0,32.9,30.20,WNW,292,10.4,10.4,48,0.00,SCT,SKC,0.01,72.0,WeatherDisplay:10.37,2013-02-01 14:35:00,
2013-02-01 09:40:00,52.1,31.9,30.20,West,275,13.8,13.8,46,0.00,SCT,SKC,0.01,123.0,WeatherDisplay:10.37,2013-02-01 14:40:00,
2013-02-01 09:45:00,52.3,32.6,30.20,WSW,240,13.8,13.8,47,0.00,SCT,SKC,0.01,239.0,WeatherDisplay:10.37,2013-02-01 14:45:00,
2013-02-01 09:50:00,52.3,32.1,30.20,WNW,289,15.0,15.0,46,0.00,SCT,SKC,0.01,388.0,WeatherDisplay:10.37,2013-02-01 14:50:00,
2013-02-01 09:55:00,52.7,33.0,30.21,West,269,12.7,12.7,47,0.00,SCT,SKC,0.01,330.0,WeatherDisplay:10.37,2013-02-01 14:55:00,
2013-02-01 10:00:00,52.8,32.6,30.21,NW,307,19.6,19.6,46,0.00,SCT,SKC,0.01,272.0,WeatherDisplay:10.37,2013-02-01 15:00:00,
2013-02-01 10:05:00,53.0,33.8,30.20,SW,227,11.5,11.5,48,0.00,SCT,SKC,0.01,271.0,WeatherDisplay:10.37,2013-02-01 15:05:00,
2013-02-01 10:10:00,53.1,33.4,30.20,West,267,11.5,11.5,47,0.00,SCT,SKC,0.01,218.0,WeatherDisplay:10.37,2013-02-01 15:10:00,
2013-02-01 10:15:00,53.2,34.0,30.21,WSW,248,8.1,8.1,48,0.00,SCT,SKC,0.01,213.0,WeatherDisplay:10.37,2013-02-01 15:15:00,
2013-02-01 10:20:00,53.0,33.8,30.20,SSW,210,15.0,15.0,48,0.00,SCT,SKC,0.01,218.0,WeatherDisplay:10.37,2013-02-01 15:20:00,
2013-02-01 10:25:00,52.8,33.6,30.21,NW,320,15.0,15.0,48,0.00,SCT,SKC,0.01,371.0,WeatherDisplay:10.37,2013-02-01 15:25:00,
2013-02-01 10:30:00,52.7,33.5,30.21,West,269,11.5,11.5,48,0.00,SCT,SKC,0.01,471.0,WeatherDisplay:10.37,2013-02-01 15:30:00,
2013-02-01 10:35:00,53.1,33.9,30.21,West,272,5.8,5.8,48,0.00,SCT,SKC,0.01,290.0,WeatherDisplay:10.37,2013-02-01 15:35:00,
2013-02-01 10:40:00,53.6,34.4,30.21,WSW,252,6.9,6.9,48,0.00,SCT,SKC,0.01,360.0,WeatherDisplay:10.37,2013-02-01 15:40:00,
2013-02-01 10:45:00,53.7,34.5,30.20,West,280,4.6,4.6,48,0.00,SCT,SKC,0.01,172.0,WeatherDisplay:10.37,2013-02-01 15:45:00,
2013-02-01 10:50:00,54.1,34.8,30.20,SW,232,11.5,11.5,48,0.00,SCT,SKC,0.01,290.0,WeatherDisplay:10.37,2013-02-01 15:50:00,
2013-02-01 10:55:00,54.8,36.0,30.20,WSW,246,9.0,9.0,49,0.00,SCT,SKC,0.01,366.0,WeatherDisplay:10.37,2013-02-01 15:55:00,
2013-02-01 11:00:00,54.8,34.9,30.20,WNW,295,10.4,10.4,47,0.00,SCT,SKC,0.01,260.0,WeatherDisplay:10.37,2013-02-01 16:00:00,
2013-02-01 11:05:00,55.1,34.1,30.20,West,269,12.7,12.7,45,0.00,SCT,SKC,0.01,436.0,WeatherDisplay:10.37,2013-02-01 16:05:00,
2013-02-01 11:10:00,55.6,34.0,30.20,WSW,242,11.5,11.5,44,0.00,SCT,SKC,0.01,476.0,WeatherDisplay:10.37,2013-02-01 16:10:00,
2013-02-01 11:15:00,55.5,33.9,30.20,WNW,289,11.0,11.0,44,0.00,SCT,SKC,0.01,237.0,WeatherDisplay:10.37,2013-02-01 16:15:00,
2013-02-01 11:20:00,55.6,33.4,30.20,WSW,247,16.1,16.1,43,0.00,SCT,SKC,0.01,392.0,WeatherDisplay:10.37,2013-02-01 16:20:00,
2013-02-01 11:25:00,56.1,33.9,30.20,WNW,286,12.7,12.7,43,0.00,SCT,SKC,0.01,297.0,WeatherDisplay:10.37,2013-02-01 16:25:00,
2013-02-01 11:30:00,55.9,33.1,30.20,West,266,8.0,8.0,42,0.00,SCT,SKC,0.01,158.0,WeatherDisplay:10.37,2013-02-01 16:30:00,
2013-02-01 11:35:00,55.8,33.6,30.20,WNW,289,11.5,11.5,43,0.00,SCT,SKC,0.01,160.0,WeatherDisplay:10.37,2013-02-01 16:35:00,
2013-02-01 11:40:00,55.5,33.9,30.20,SW,236,11.5,11.5,44,0.00,SCT,SKC,0.01,272.0,WeatherDisplay:10.37,2013-02-01 16:40:00,
2013-02-01 11:45:00,56.0,34.4,30.19,WNW,298,10.4,10.4,44,0.00,SCT,SKC,0.01,316.0,WeatherDisplay:10.37,2013-02-01 16:45:00,
2013-02-01 11:50:00,56.1,33.3,30.20,WNW,284,19.6,19.6,42,0.00,SCT,SKC,0.01,401.0,WeatherDisplay:10.37,2013-02-01 16:50:00,
2013-02-01 11:55:00,56.8,34.5,30.20,WSW,248,8.0,8.0,43,0.00,SCT,SKC,0.01,313.0,WeatherDisplay:10.37,2013-02-01 16:55:00,
2013-02-01 12:00:00,56.7,33.2,30.20,NW,312,10.4,10.4,41,0.00,SCT,SKC,0.01,338.0,WeatherDisplay:10.37,2013-02-01 17:00:00,
2013-02-01 12:05:00,57.2,33.7,30.20,WNW,286,6.9,6.9,41,0.00,SCT,SKC,0.01,308.0,WeatherDisplay:10.37,2013-02-01 17:05:00,
2013-02-01 12:10:00,57.6,30.8,30.19,WSW,252,16.1,16.1,36,0.00,SCT,SKC,0.01,403.0,WeatherDisplay:10.37,2013-02-01 17:10:00,
2013-02-01 12:15:00,57.3,30.5,30.20,WSW,242,10.4,10.4,36,0.00,SCT,SKC,0.01,369.0,WeatherDisplay:10.37,2013-02-01 17:15:00,
2013-02-01 12:20:00,57.0,29.6,30.20,WNW,289,11.5,11.5,35,0.00,SCT,SKC,0.01,353.0,WeatherDisplay:10.37,2013-02-01 17:20:00,
2013-02-01 12:25:00,57.1,30.4,30.19,WSW,251,9.2,9.2,36,0.00,SCT,SKC,0.01,647.0,WeatherDisplay:10.37,2013-02-01 17:25:00,
2013-02-01 12:30:00,57.5,30.0,30.19,NW,313,12.7,12.7,35,0.00,SCT,SKC,0.01,589.0,WeatherDisplay:10.37,2013-02-01 17:30:00,
2013-02-01 12:35:00,57.6,28.7,30.20,West,275,15.0,15.0,33,0.00,SCT,SKC,0.01,714.0,WeatherDisplay:10.37,2013-02-01 17:35:00,
2013-02-01 12:40:00,57.2,25.2,30.19,NW,320,11.5,11.5,29,0.00,SCT,SKC,0.01,738.0,WeatherDisplay:10.37,2013-02-01 17:40:00,
2013-02-01 12:45:00,57.3,25.3,30.19,WNW,284,15.0,15.0,29,0.00,SCT,SKC,0.01,563.0,WeatherDisplay:10.37,2013-02-01 17:45:00,
2013-02-01 12:50:00,57.1,25.9,30.20,NNW,331,10.4,10.4,30,0.00,SCT,SKC,0.01,608.0,WeatherDisplay:10.37,2013-02-01 17:50:00,
2013-02-01 12:55:00,57.0,25.8,30.19,SW,222,12.7,12.7,30,0.00,SCT,SKC,0.01,613.0,WeatherDisplay:10.37,2013-02-01 17:55:00,
2013-02-01 13:00:00,56.9,26.5,30.19,WNW,282,10.4,10.4,31,0.00,SCT,SKC,0.01,633.0,WeatherDisplay:10.37,2013-02-01 18:00:00,
2013-02-01 13:05:00,57.5,26.3,30.19,West,277,9.2,9.2,30,0.00,SCT,SKC,0.01,675.0,WeatherDisplay:10.37,2013-02-01 18:05:00,
2013-02-01 13:10:00,57.3,26.9,30.19,WNW,302,11.5,11.5,31,0.00,SCT,SKC,0.01,570.0,WeatherDisplay:10.37,2013-02-01 18:10:00,
2013-02-01 13:15:00,57.5,27.1,30.19,WSW,240,10.0,10.0,31,0.00,SCT,SKC,0.01,622.0,WeatherDisplay:10.37,2013-02-01 18:15:00,
2013-02-01 13:20:00,58.0,26.7,30.19,West,260,9.0,9.0,30,0.00,SCT,SKC,0.01,638.0,WeatherDisplay:10.37,2013-02-01 18:20:00,
2013-02-01 13:25:00,57.8,26.5,30.19,WNW,292,12.0,12.0,30,0.00,SCT,SKC,0.01,636.0,WeatherDisplay:10.37,2013-02-01 18:25:00,
2013-02-01 13:30:00,57.8,25.7,30.19,West,268,8.0,8.0,29,0.00,SCT,SKC,0.01,670.0,WeatherDisplay:10.37,2013-02-01 18:30:00,
2013-02-01 13:35:00,57.7,23.9,30.19,WNW,297,16.1,16.1,27,0.01,RA,SKC,0.02,564.0,WeatherDisplay:10.37,2013-02-01 18:35:00,
2013-02-01 13:40:00,57.5,24.6,30.19,North,355,10.4,10.4,28,0.01,RA,SKC,0.02,608.0,WeatherDisplay:10.37,2013-02-01 18:40:00,
2013-02-01 13:45:00,57.7,25.6,30.19,NW,325,9.2,9.2,29,0.01,SCT,SKC,0.02,673.0,WeatherDisplay:10.37,2013-02-01 18:45:00,
2013-02-01 13:50:00,57.7,23.9,30.19,WSW,248,12.7,12.7,27,0.01,SCT,SKC,0.02,675.0,WeatherDisplay:10.37,2013-02-01 18:50:00,
2013-02-01 13:55:00,57.9,24.1,30.19,WNW,303,11.5,11.5,27,0.01,SCT,SKC,0.02,647.0,WeatherDisplay:10.37,2013-02-01 18:55:00,
2013-02-01 14:00:00,57.5,22.8,30.19,WSW,252,8.1,8.1,26,0.01,SCT,SKC,0.02,652.0,WeatherDisplay:10.37,2013-02-01 19:00:00,
2013-02-01 14:05:00,57.7,23.0,30.19,NW,311,8.1,8.1,26,0.01,SCT,SKC,0.02,643.0,WeatherDisplay:10.37,2013-02-01 19:05:00,
2013-02-01 14:10:00,57.6,23.8,30.19,NNW,329,10.4,10.4,27,0.01,SCT,SKC,0.02,635.0,WeatherDisplay:10.37,2013-02-01 19:10:00,
2013-02-01 14:15:00,57.5,23.7,30.19,SW,232,11.5,11.5,27,0.01,SCT,SKC,0.02,628.0,WeatherDisplay:10.37,2013-02-01 19:15:00,
2013-02-01 14:20:00,57.7,24.8,30.19,North,5,6.9,6.9,28,0.01,SCT,SKC,0.02,617.0,WeatherDisplay:10.37,2013-02-01 19:20:00,
2013-02-01 14:25:00,57.8,25.7,30.19,WNW,301,11.5,11.5,29,0.01,SCT,SKC,0.02,606.0,WeatherDisplay:10.37,2013-02-01 19:25:00,
2013-02-01 14:31:00,57.3,25.3,30.19,West,281,5.8,5.8,29,0.01,SCT,SKC,0.02,596.0,WeatherDisplay:10.37,2013-02-01 19:31:00,
2013-02-01 14:36:00,57.1,24.3,30.19,West,271,5.8,5.8,28,0.00,SCT,SKC,0.02,587.0,WeatherDisplay:10.37,2013-02-01 19:36:00,
2013-02-01 14:41:00,57.2,24.3,30.19,WNW,284,10.4,10.4,28,0.00,SCT,SKC,0.02,578.0,WeatherDisplay:10.37,2013-02-01 19:41:00,
2013-02-01 14:46:00,57.5,23.7,30.19,West,274,12.0,12.0,27,0.00,SCT,SKC,0.02,568.0,WeatherDisplay:10.37,2013-02-01 19:46:00,
2013-02-01 14:51:00,56.9,24.1,30.19,West,259,12.7,12.7,28,0.00,SCT,SKC,0.02,555.0,WeatherDisplay:10.37,2013-02-01 19:51:00,
2013-02-01 14:56:00,56.5,24.6,30.19,West,273,12.0,12.0,29,0.00,SCT,SKC,0.02,35.0,WeatherDisplay:10.37,2013-02-01 19:56:00,
2013-02-01 15:01:00,56.5,24.6,30.20,WNW,294,10.4,10.4,29,0.00,SCT,SKC,0.02,35.0,WeatherDisplay:10.37,2013-02-01 20:01:00,
2013-02-01 15:06:00,56.4,24.5,30.20,WSW,239,9.2,9.2,29,0.00,SCT,SKC,0.02,44.0,WeatherDisplay:10.37,2013-02-01 20:06:00,
2013-02-01 15:11:00,56.4,25.3,30.20,West,263,4.6,4.6,30,0.00,SCT,SKC,0.02,47.0,WeatherDisplay:10.37,2013-02-01 20:11:00,
2013-02-01 15:16:00,56.5,25.4,30.20,WSW,253,11.5,11.5,30,0.00,SCT,SKC,0.02,37.0,WeatherDisplay:10.37,2013-02-01 20:16:00,
2013-02-01 15:21:00,56.4,24.5,30.20,West,262,4.6,4.6,29,0.00,SCT,SKC,0.02,47.0,WeatherDisplay:10.37,2013-02-01 20:21:00,
2013-02-01 15:26:00,56.2,25.1,30.20,NW,306,11.5,11.5,30,0.00,SCT,SKC,0.02,35.0,WeatherDisplay:10.37,2013-02-01 20:26:00,
2013-02-01 15:31:00,56.2,25.1,30.21,WNW,296,8.1,8.1,30,0.00,SCT,SKC,0.02,33.0,WeatherDisplay:10.37,2013-02-01 20:31:00,
2013-02-01 15:36:00,56.2,23.5,30.21,WNW,291,12.7,12.7,28,0.00,SCT,SKC,0.02,56.0,WeatherDisplay:10.37,2013-02-01 20:36:00,
2013-02-01 15:41:00,55.9,21.5,30.21,NNW,327,11.5,11.5,26,0.00,SCT,SKC,0.02,47.0,WeatherDisplay:10.37,2013-02-01 20:41:00,
2013-02-01 15:46:00,55.6,18.3,30.21,West,275,10.4,10.4,23,0.00,SCT,SKC,0.02,35.0,WeatherDisplay:10.37,2013-02-01 20:46:00,
2013-02-01 15:51:00,55.7,21.3,30.21,West,275,5.8,5.8,26,0.00,SCT,SKC,0.02,35.0,WeatherDisplay:10.37,2013-02-01 20:51:00,
2013-02-01 15:56:00,55.7,20.4,30.22,SW,229,8.1,8.1,25,0.00,SCT,SKC,0.02,30.0,WeatherDisplay:10.37,2013-02-01 20:56:00,
2013-02-01 16:01:00,55.4,18.2,30.22,WNW,286,11.5,11.5,23,0.00,SCT,SKC,0.02,28.0,WeatherDisplay:10.37,2013-02-01 21:01:00,
2013-02-01 16:06:00,55.4,20.1,30.22,WNW,284,10.4,10.4,25,0.00,SCT,SKC,0.02,33.0,WeatherDisplay:10.37,2013-02-01 21:06:00,
2013-02-01 16:11:00,55.1,18.9,30.22,WSW,257,5.8,5.8,24,0.00,SCT,SKC,0.02,65.0,WeatherDisplay:10.37,2013-02-01 21:11:00,
2013-02-01 16:16:00,55.0,18.8,30.22,SW,229,11.5,11.5,24,0.00,SCT,SKC,0.02,26.0,WeatherDisplay:10.37,2013-02-01 21:16:00,
2013-02-01 16:21:00,54.9,16.7,30.22,NW,317,10.4,10.4,22,0.00,SCT,SKC,0.02,26.0,WeatherDisplay:10.37,2013-02-01 21:21:00,
2013-02-01 16:26:00,54.8,16.6,30.23,SSW,213,5.8,5.8,22,0.00,SCT,SKC,0.02,32.0,WeatherDisplay:10.37,2013-02-01 21:26:00,
2013-02-01 16:31:00,54.6,17.5,30.23,WNW,290,8.1,8.1,23,0.00,SCT,SKC,0.02,26.0,WeatherDisplay:10.37,2013-02-01 21:31:00,
2013-02-01 16:36:00,54.5,19.3,30.23,WSW,253,3.5,4.5,25,0.00,SCT,SKC,0.02,26.0,WeatherDisplay:10.37,2013-02-01 21:36:00,
2013-02-01 16:41:00,54.4,18.3,30.23,NW,306,7.0,7.0,24,0.00,SCT,SKC,0.02,26.0,WeatherDisplay:10.37,2013-02-01 21:41:00,
2013-02-01 16:47:00,54.2,18.1,30.23,West,263,8.1,8.1,24,0.00,SCT,SKC,0.02,23.0,WeatherDisplay:10.37,2013-02-01 21:47:00,
2013-02-01 16:52:00,54.0,18.9,30.23,West,261,6.9,6.9,25,0.00,SCT,SKC,0.02,21.0,WeatherDisplay:10.37,2013-02-01 21:52:00,
2013-02-01 16:57:00,53.9,17.9,30.24,West,273,5.8,5.8,24,0.00,SCT,SKC,0.02,21.0,WeatherDisplay:10.37,2013-02-01 21:57:00,
2013-02-01 17:02:00,53.7,17.7,30.24,WSW,257,4.6,4.6,24,0.00,SCT,SKC,0.02,19.0,WeatherDisplay:10.37,2013-02-01 22:02:00,
2013-02-01 17:07:00,53.5,17.5,30.24,NW,321,3.5,3.5,24,0.00,SCT,SKC,0.02,19.0,WeatherDisplay:10.37,2013-02-01 22:07:00,
2013-02-01 17:12:00,53.4,17.5,30.24,West,270,3.5,3.5,24,0.00,SCT,SKC,0.02,18.0,WeatherDisplay:10.37,2013-02-01 22:12:00,
2013-02-01 17:17:00,53.2,17.3,30.24,WSW,256,5.8,5.8,24,0.00,SCT,SKC,0.02,16.0,WeatherDisplay:10.37,2013-02-01 22:17:00,
2013-02-01 17:22:00,53.0,18.1,30.25,WSW,258,6.9,6.9,25,0.00,SCT,SKC,0.02,14.0,WeatherDisplay:10.37,2013-02-01 22:22:00,
2013-02-01 17:27:00,52.7,18.7,30.25,WNW,286,4.6,4.6,26,0.00,SCT,SKC,0.02,14.0,WeatherDisplay:10.37,2013-02-01 22:27:00,
2013-02-01 17:32:00,52.4,17.6,30.25,WNW,284,3.5,3.5,25,0.00,SCT,SKC,0.02,12.0,WeatherDisplay:10.37,2013-02-01 22:32:00,
2013-02-01 17:37:00,52.2,18.3,30.25,WNW,286,4.6,4.6,26,0.00,SCT,SKC,0.02,11.0,WeatherDisplay:10.37,2013-02-01 22:37:00,
2013-02-01 17:42:00,51.9,21.4,30.25,North,355,2.3,2.3,30,0.00,SCT,SKC,0.02,9.0,WeatherDisplay:10.37,2013-02-01 22:42:00,
2013-02-01 17:47:00,51.3,23.8,30.26,West,279,2.3,2.3,34,0.00,SCT,SKC,0.02,7.0,WeatherDisplay:10.37,2013-02-01 22:47:00,
2013-02-01 17:52:00,50.7,24.7,30.26,NNE,28,2.3,2.3,36,0.00,SCT,SKC,0.02,0.0,WeatherDisplay:10.37,2013-02-01 22:52:00,
2013-02-01 17:57:00,50.4,24.4,30.26,WNW,300,1.2,1.2,36,0.00,SCT,SKC,0.02,0.0,WeatherDisplay:10.37,2013-02-01 22:57:00,
2013-02-01 18:02:00,50.0,24.1,30.26,WSW,244,3.5,3.5,36,0.00,FEW,SKC,0.02,0.0,WeatherDisplay:10.37,2013-02-01 23:02:00,
2013-02-01 18:07:00,49.8,23.9,30.27,NNE,19,1.2,0.0,36,0.00,FEW,SKC,0.02,0.0,WeatherDisplay:10.37,2013-02-01 23:07:00,
2013-02-01 18:12:00,49.5,23.6,30.27,ENE,68,2.3,2.3,36,0.00,FEW,SKC,0.02,0.0,WeatherDisplay:10.37,2013-02-01 23:12:00,
2013-02-01 18:17:00,49.1,23.3,30.27,NE,36,3.5,3.5,36,0.00,FEW,SKC,0.02,0.0,WeatherDisplay:10.37,2013-02-01 23:17:00,
2013-02-01 18:22:00,48.9,23.7,30.27,NE,35,2.0,2.0,37,0.00,FEW,SKC,0.02,0.0,WeatherDisplay:10.37,2013-02-01 23:22:00,
2013-02-01 18:27:00,48.5,23.4,30.27,NNW,345,2.0,2.0,37,0.00,FEW,SKC,0.02,0.0,WeatherDisplay:10.37,2013-02-01 23:27:00,
2013-02-01 18:32:00,48.3,22.5,30.28,NNW,331,1.2,1.2,36,0.00,FEW,SKC,0.02,0.0,WeatherDisplay:10.37,2013-02-01 23:32:00,
2013-02-01 18:37:00,48.1,23.0,30.28,North,10,1.0,1.0,37,0.00,FEW,SKC,0.02,0.0,WeatherDisplay:10.37,2013-02-01 23:37:00,
2013-02-01 18:42:00,47.9,23.5,30.28,North,10,0.0,0.0,38,0.00,FEW,SKC,0.02,0.0,WeatherDisplay:10.37,2013-02-01 23:42:00,
2013-02-01 18:47:00,47.2,22.9,30.28,North,10,0.0,0.0,38,0.00,FEW,SKC,0.02,0.0,WeatherDisplay:10.37,2013-02-01 23:47:00,
2013-02-01 18:52:00,46.8,23.7,30.29,North,10,0.0,0.0,40,0.00,FEW,SKC,0.02,0.0,WeatherDisplay:10.37,2013-02-01 23:52:00,
2013-02-01 18:57:00,46.1,23.7,30.29,North,10,0.0,0.0,41,0.00,FEW,SKC,0.02,0.0,WeatherDisplay:10.37,2013-02-01 23:57:00,
2013-02-01 19:02:00,45.7,25.0,30.29,North,10,0.0,0.0,44,0.00,FEW,SKC,0.02,0.0,WeatherDisplay:10.37,2013-02-02 00:02:00,
2013-02-01 19:07:00,45.3,24.1,30.29,North,10,0.0,0.0,43,0.00,FEW,SKC,0.02,0.0,WeatherDisplay:10.37,2013-02-02 00:07:00,
2013-02-01 19:12:00,45.0,23.8,30.30,North,10,0.0,0.0,43,0.00,FEW,SKC,0.02,0.0,WeatherDisplay:10.37,2013-02-02 00:12:00,
2013-02-01 19:17:00,44.9,24.3,30.30,North,10,0.0,0.0,44,0.00,FEW,SKC,0.02,0.0,WeatherDisplay:10.37,2013-02-02 00:17:00,
2013-02-01 19:22:00,44.4,24.9,30.30,North,10,0.0,0.0,46,0.00,FEW,SKC,0.02,0.0,WeatherDisplay:10.37,2013-02-02 00:22:00,
2013-02-01 19:27:00,44.1,24.6,30.30,North,10,0.0,0.0,46,0.00,FEW,SKC,0.02,0.0,WeatherDisplay:10.37,2013-02-02 00:27:00,
2013-02-01 19:32:00,43.8,25.4,30.30,North,10,0.0,0.0,48,0.00,FEW,SKC,0.02,0.0,WeatherDisplay:10.37,2013-02-02 00:32:00,
2013-02-01 19:37:00,43.6,25.2,30.31,North,10,0.0,0.0,48,0.00,FEW,SKC,0.02,0.0,WeatherDisplay:10.37,2013-02-02 00:37:00,
2013-02-01 19:42:00,43.3,25.4,30.31,North,10,0.0,0.0,49,0.00,FEW,SKC,0.02,0.0,WeatherDisplay:10.37,2013-02-02 00:42:00,
2013-02-01 19:47:00,43.0,25.1,30.32,North,10,0.0,0.0,49,0.00,FEW,SKC,0.02,0.0,WeatherDisplay:10.37,2013-02-02 00:47:00,
2013-02-01 19:52:00,42.7,25.3,30.32,North,10,0.0,0.0,50,0.00,FEW,SKC,0.02,0.0,WeatherDisplay:10.37,2013-02-02 00:52:00,
2013-02-01 19:57:00,42.4,25.5,30.32,North,10,0.0,0.0,51,0.00,FEW,SKC,0.02,0.0,WeatherDisplay:10.37,2013-02-02 00:57:00,
2013-02-01 20:02:00,42.3,25.4,30.32,North,10,0.0,0.0,51,0.00,FEW,SKC,0.02,0.0,WeatherDisplay:10.37,2013-02-02 01:02:00,
2013-02-01 20:07:00,42.3,25.4,30.32,North,10,0.0,0.0,51,0.00,FEW,SKC,0.02,0.0,WeatherDisplay:10.37,2013-02-02 01:07:00,
2013-02-01 20:12:00,42.1,24.8,30.32,North,10,0.0,0.0,50,0.00,FEW,SKC,0.02,0.0,WeatherDisplay:10.37,2013-02-02 01:12:00,
2013-02-01 20:17:00,41.7,24.9,30.32,North,10,0.0,0.0,51,0.00,FEW,SKC,0.02,0.0,WeatherDisplay:10.37,2013-02-02 01:17:00,
2013-02-01 20:22:00,41.3,25.4,30.32,North,10,0.0,0.0,53,0.00,FEW,SKC,0.02,0.0,WeatherDisplay:10.37,2013-02-02 01:22:00,
2013-02-01 20:27:00,41.3,24.5,30.32,North,10,0.0,0.0,51,0.00,FEW,SKC,0.02,0.0,WeatherDisplay:10.37,2013-02-02 01:27:00,
2013-02-01 20:32:00,41.0,24.2,30.32,North,10,0.0,0.0,51,0.00,FEW,SKC,0.02,0.0,WeatherDisplay:10.37,2013-02-02 01:32:00,
2013-02-01 20:37:00,40.7,24.4,30.32,North,10,0.0,0.0,52,0.00,FEW,SKC,0.02,0.0,WeatherDisplay:10.37,2013-02-02 01:37:00,
2013-02-01 20:43:00,40.6,24.8,30.33,North,10,0.0,0.0,53,0.00,FEW,SKC,0.02,0.0,WeatherDisplay:10.37,2013-02-02 01:43:00,
2013-02-01 20:48:00,40.5,24.7,30.33,North,10,0.0,0.0,53,0.00,FEW,SKC,0.02,0.0,WeatherDisplay:10.37,2013-02-02 01:48:00,
2013-02-01 20:53:00,40.4,24.1,30.33,North,10,0.0,0.0,52,0.00,FEW,SKC,0.02,0.0,WeatherDisplay:10.37,2013-02-02 01:53:00,
2013-02-01 20:58:00,40.1,24.3,30.33,North,10,0.0,0.0,53,0.00,FEW,SKC,0.02,0.0,WeatherDisplay:10.37,2013-02-02 01:58:00,
2013-02-01 21:03:00,40.1,24.8,30.33,North,10,1.2,1.2,54,0.00,CLR,SKC,0.02,0.0,WeatherDisplay:10.37,2013-02-02 02:03:00,
2013-02-01 21:08:00,40.2,24.0,30.33,North,10,0.0,0.0,52,0.00,CLR,SKC,0.02,0.0,WeatherDisplay:10.37,2013-02-02 02:08:00,
2013-02-01 21:13:00,40.1,23.9,30.34,North,10,0.0,0.0,52,0.00,CLR,SKC,0.02,0.0,WeatherDisplay:10.37,2013-02-02 02:13:00,
2013-02-01 21:18:00,40.1,23.9,30.34,NNE,12,0.0,0.0,52,0.00,CLR,SKC,0.02,0.0,WeatherDisplay:10.37,2013-02-02 02:18:00,
2013-02-01 21:23:00,39.9,23.2,30.34,NNE,12,0.0,0.0,51,0.00,CLR,SKC,0.02,0.0,WeatherDisplay:10.37,2013-02-02 02:23:00,
2013-02-01 21:28:00,39.8,23.1,30.34,NNE,12,0.0,0.0,51,0.00,CLR,SKC,0.02,0.0,WeatherDisplay:10.37,2013-02-02 02:28:00,
2013-02-01 21:33:00,39.8,23.6,30.34,NNE,12,0.0,0.0,52,0.00,CLR,SKC,0.02,0.0,WeatherDisplay:10.37,2013-02-02 02:33:00,
2013-02-01 21:38:00,39.6,23.9,30.34,NNE,12,0.0,0.0,53,0.00,CLR,SKC,0.02,0.0,WeatherDisplay:10.37,2013-02-02 02:38:00,
2013-02-01 21:43:00,39.3,21.7,30.34,NNE,12,0.0,0.0,49,0.00,CLR,SKC,0.02,0.0,WeatherDisplay:10.37,2013-02-02 02:43:00,
2013-02-01 21:48:00,39.2,22.1,30.34,NNE,12,0.0,0.0,50,0.00,CLR,SKC,0.02,0.0,WeatherDisplay:10.37,2013-02-02 02:48:00,
2013-02-01 21:53:00,38.9,21.8,30.34,NNE,12,0.0,0.0,50,0.00,CLR,SKC,0.02,0.0,WeatherDisplay:10.37,2013-02-02 02:53:00,
2013-02-01 21:58:00,38.7,21.2,30.34,NNE,12,0.0,0.0,49,0.00,CLR,SKC,0.02,0.0,WeatherDisplay:10.37,2013-02-02 02:58:00,
2013-02-01 22:03:00,38.5,21.5,30.34,NNE,12,0.0,0.0,50,0.00,CLR,SKC,0.02,0.0,WeatherDisplay:10.37,2013-02-02 03:03:00,
2013-02-01 22:08:00,38.4,21.8,30.34,NNE,12,2.3,2.3,51,0.00,CLR,SKC,0.02,0.0,WeatherDisplay:10.37,2013-02-02 03:08:00,
2013-02-01 22:13:00,38.4,21.4,30.35,NNE,12,0.0,0.0,50,0.00,CLR,SKC,0.02,0.0,WeatherDisplay:10.37,2013-02-02 03:13:00,
2013-02-01 22:18:00,38.1,22.5,30.34,NNE,12,2.3,2.3,53,0.00,CLR,SKC,0.02,0.0,WeatherDisplay:10.37,2013-02-02 03:18:00,
2013-02-01 22:23:00,37.9,22.3,30.35,NNE,12,0.0,0.0,53,0.00,CLR,SKC,0.02,0.0,WeatherDisplay:10.37,2013-02-02 03:23:00,
2013-02-01 22:28:00,38.0,22.4,30.35,NNE,12,0.0,0.0,53,0.00,CLR,SKC,0.02,0.0,WeatherDisplay:10.37,2013-02-02 03:28:00,
2013-02-01 22:33:00,38.0,21.9,30.35,NNE,12,0.0,0.0,52,0.00,CLR,SKC,0.02,0.0,WeatherDisplay:10.37,2013-02-02 03:33:00,
2013-02-01 22:38:00,37.8,23.1,30.35,NNE,12,1.0,1.0,55,0.00,CLR,SKC,0.02,0.0,WeatherDisplay:10.37,2013-02-02 03:38:00,
2013-02-01 22:43:00,38.2,22.6,30.35,NNE,12,2.0,2.0,53,0.00,CLR,SKC,0.02,0.0,WeatherDisplay:10.37,2013-02-02 03:43:00,
2013-02-01 22:48:00,38.8,20.3,30.35,NNE,13,1.2,1.2,47,0.00,CLR,SKC,0.02,0.0,WeatherDisplay:10.37,2013-02-02 03:48:00,
2013-02-01 22:53:00,39.1,20.5,30.35,NNE,14,1.0,1.0,47,0.00,CLR,SKC,0.02,0.0,WeatherDisplay:10.37,2013-02-02 03:53:00,
2013-02-01 22:58:00,38.7,21.6,30.35,NNE,14,0.0,0.0,50,0.00,CLR,SKC,0.02,0.0,WeatherDisplay:10.37,2013-02-02 03:58:00,
2013-02-01 23:03:00,38.6,20.6,30.36,NNE,17,2.3,2.3,48,0.00,CLR,SKC,0.02,0.0,WeatherDisplay:10.37,2013-02-02 04:03:00,
2013-02-01 23:08:00,38.8,20.3,30.36,NNE,17,0.0,0.0,47,0.00,CLR,SKC,0.02,0.0,WeatherDisplay:10.37,2013-02-02 04:08:00,
2013-02-01 23:13:00,38.7,20.7,30.36,NNE,17,0.0,0.0,48,0.00,CLR,SKC,0.02,0.0,WeatherDisplay:10.37,2013-02-02 04:13:00,
2013-02-01 23:18:00,38.1,21.5,30.36,NNE,17,1.2,0.0,51,0.00,CLR,SKC,0.02,0.0,WeatherDisplay:10.37,2013-02-02 04:18:00,
2013-02-01 23:23:00,37.9,21.4,30.36,NNE,17,1.2,1.2,51,0.00,CLR,SKC,0.02,0.0,WeatherDisplay:10.37,2013-02-02 04:23:00,
2013-02-01 23:28:00,37.7,20.7,30.35,NNE,17,1.2,1.2,50,0.00,CLR,SKC,0.02,0.0,WeatherDisplay:10.37,2013-02-02 04:28:00,
2013-02-01 23:33:00,37.9,20.4,30.36,NNE,17,1.2,1.2,49,0.00,CLR,SKC,0.02,0.0,WeatherDisplay:10.37,2013-02-02 04:33:00,
2013-02-01 23:38:00,38.4,18.9,30.36,NNE,26,2.3,2.3,45,0.00,CLR,SKC,0.02,0.0,WeatherDisplay:10.37,2013-02-02 04:38:00,
2013-02-01 23:43:00,38.5,20.0,30.36,NNE,26,2.3,2.3,47,0.00,CLR,SKC,0.02,0.0,WeatherDisplay:10.37,2013-02-02 04:43:00,
2013-02-01 23:48:00,38.3,18.8,30.36,East,93,2.3,2.3,45,0.00,CLR,SKC,0.02,0.0,WeatherDisplay:10.37,2013-02-02 04:48:00,
2013-02-01 23:53:00,38.6,17.5,30.36,East,89,1.2,1.2,42,0.00,CLR,SKC,0.02,0.0,WeatherDisplay:10.37,2013-02-02 04:53:00,
2013-02-01 23:58:00,38.2,18.7,30.36,NE,55,3.5,3.5,45,0.00,CLR,SKC,0.02,0.0,WeatherDisplay:10.37,2013-02-02 04:58:00,